createdAt,value
2023-05-05T00:02:21.648Z,55.05
2023-05-05T00:04:48.568Z,55.02
2023-05-05T00:07:15.639Z,54.46
2023-05-05T00:09:43.610Z,54.63
2023-05-05T00:12:10.721Z,54.50
2023-05-05T00:14:37.822Z,54.22
2023-05-05T00:17:05.785Z,54.68
2023-05-05T00:19:36.311Z,53.87
2023-05-05T00:22:11.504Z,54.06
2023-05-05T00:24:45.147Z,53.35
2023-05-05T00:27:14.902Z,53.19
2023-05-05T00:29:45.051Z,53.23
2023-05-05T00:32:14.321Z,53.09
2023-05-05T00:34:41.138Z,53.95
2023-05-05T00:37:07.949Z,54.43
2023-05-05T00:39:34.796Z,53.51
2023-05-05T00:42:01.670Z,53.74
2023-05-05T00:44:38.277Z,54.36
2023-05-05T00:47:06.002Z,56.19
2023-05-05T00:49:33.719Z,58.97
2023-05-05T00:52:00.792Z,58.42
2023-05-05T00:54:28.186Z,59.78
2023-05-05T00:56:55.356Z,60.84
2023-05-05T00:59:22.392Z,59.94
2023-05-05T01:01:49.599Z,58.31
2023-05-05T01:04:16.462Z,58.13
2023-05-05T01:07:03.864Z,57.96
2023-05-05T01:10:18.033Z,56.80
2023-05-05T01:13:14.746Z,58.64
2023-05-05T01:15:50.655Z,60.08
2023-05-05T01:18:37.745Z,60.79
2023-05-05T01:21:42.797Z,61.84
2023-05-05T01:24:42.137Z,61.37
2023-05-05T01:27:30.792Z,60.63
2023-05-05T01:30:03.229Z,60.16
2023-05-05T01:32:34.097Z,59.29
2023-05-05T01:35:09.732Z,59.38
2023-05-05T01:38:17.352Z,59.20
2023-05-05T01:40:49.284Z,59.21
2023-05-05T01:43:20.359Z,59.21
2023-05-05T01:45:49.086Z,59.59
2023-05-05T01:48:19.733Z,62.23
2023-05-05T01:50:48.514Z,62.91
2023-05-05T01:53:18.268Z,63.45
2023-05-05T01:55:47.585Z,62.65
2023-05-05T01:58:16.352Z,64.11
2023-05-05T02:00:44.495Z,63.39
2023-05-05T02:03:13.936Z,62.65
2023-05-05T02:05:44.112Z,61.47
2023-05-05T02:08:12.556Z,61.16
2023-05-05T02:10:40.304Z,61.03
2023-05-05T02:13:08.200Z,60.00
2023-05-05T02:15:37.767Z,60.08
2023-05-05T02:18:06.944Z,60.86
2023-05-05T02:20:36.279Z,62.16
2023-05-05T02:23:03.326Z,60.94
2023-05-05T02:25:46.159Z,60.81
2023-05-05T02:28:21.545Z,60.30
2023-05-05T02:30:59.652Z,60.16
2023-05-05T02:33:29.593Z,60.64
2023-05-05T02:35:57.668Z,61.19
2023-05-05T02:38:30.848Z,60.96
2023-05-05T02:40:59.427Z,60.00
2023-05-05T02:43:30.055Z,60.31
2023-05-05T02:45:57.268Z,60.88
2023-05-05T02:48:24.158Z,60.83
2023-05-05T02:50:51.101Z,60.97
2023-05-05T02:53:23.808Z,61.37
2023-05-05T02:55:57.415Z,60.65
2023-05-05T02:58:57.209Z,59.74
2023-05-05T03:02:02.799Z,60.30
2023-05-05T03:04:38.610Z,61.87
2023-05-05T03:07:26.279Z,62.67
2023-05-05T03:10:05.527Z,61.24
2023-05-05T03:12:40.059Z,60.00
2023-05-05T03:15:10.634Z,58.88
2023-05-05T03:17:39.738Z,59.37
2023-05-05T03:20:08.200Z,59.35
2023-05-05T03:22:41.303Z,60.27
2023-05-05T03:25:08.635Z,60.29
2023-05-05T03:27:36.230Z,61.30
2023-05-05T03:30:03.356Z,60.49
2023-05-05T03:32:30.441Z,59.97
2023-05-05T03:34:57.686Z,59.81
2023-05-05T03:37:24.702Z,60.83
2023-05-05T03:39:51.567Z,61.18
2023-05-05T03:42:18.606Z,63.21
2023-05-05T03:44:45.689Z,64.35
2023-05-05T03:47:13.207Z,64.92
2023-05-05T03:49:40.132Z,65.11
2023-05-05T03:52:07.187Z,65.36
2023-05-05T03:54:34.364Z,64.18
2023-05-05T03:57:01.514Z,63.58
2023-05-05T03:59:28.523Z,63.72
2023-05-05T04:01:55.588Z,62.84
2023-05-05T04:04:22.484Z,62.19
2023-05-05T04:06:49.696Z,60.53
2023-05-05T04:09:16.541Z,59.19
2023-05-05T04:11:43.430Z,58.05
2023-05-05T04:14:10.508Z,54.73
2023-05-05T04:16:37.838Z,57.47
2023-05-05T04:19:04.738Z,53.38
2023-05-05T04:21:31.786Z,50.98
2023-05-05T04:23:58.758Z,48.81
2023-05-05T04:26:25.880Z,48.76
2023-05-05T04:28:53.022Z,46.76
2023-05-05T04:31:20.210Z,45.60
2023-05-05T04:33:47.340Z,45.73
2023-05-05T04:36:14.500Z,46.05
2023-05-05T04:38:41.550Z,45.29
2023-05-05T04:41:08.541Z,45.36
2023-05-05T04:43:35.595Z,45.17
2023-05-05T04:46:02.474Z,44.97
2023-05-05T04:48:29.350Z,44.67
2023-05-05T04:50:56.683Z,44.40
2023-05-05T04:53:24.821Z,43.93
2023-05-05T04:55:52.115Z,43.82
2023-05-05T04:58:19.832Z,44.28
2023-05-05T05:00:47.644Z,42.02
2023-05-05T05:03:14.758Z,42.42
2023-05-05T05:05:41.873Z,42.73
2023-05-05T05:08:08.929Z,42.42
2023-05-05T05:10:36.396Z,42.83
2023-05-05T05:13:12.902Z,41.53
2023-05-05T05:15:40.068Z,42.51
2023-05-05T05:18:14.340Z,41.59
2023-05-05T05:20:41.168Z,41.61
2023-05-05T05:23:07.945Z,42.17
2023-05-05T05:25:34.773Z,41.98
2023-05-05T05:28:10.346Z,41.27
2023-05-05T05:30:37.905Z,42.25
2023-05-05T05:33:15.909Z,41.80
2023-05-05T05:35:43.260Z,43.03
2023-05-05T05:38:10.143Z,43.25
2023-05-05T05:40:37.034Z,43.37
2023-05-05T05:43:17.352Z,43.38
2023-05-05T05:45:44.856Z,43.69
2023-05-05T05:48:11.773Z,43.49
2023-05-05T05:50:49.780Z,43.10
2023-05-05T05:53:16.664Z,42.70
2023-05-05T05:55:46.441Z,41.54
2023-05-05T05:58:13.287Z,41.32
2023-05-05T06:00:40.195Z,41.02
2023-05-05T06:03:07.152Z,40.98
2023-05-05T06:05:33.986Z,39.27
2023-05-05T06:08:01.288Z,39.25
2023-05-05T06:10:28.627Z,39.86
2023-05-05T06:12:55.580Z,38.57
2023-05-05T06:15:22.705Z,37.63
2023-05-05T06:17:49.514Z,39.28
2023-05-05T06:20:16.463Z,38.58
2023-05-05T06:22:44.602Z,39.05
2023-05-05T06:25:11.587Z,38.50
2023-05-05T06:27:38.609Z,38.47
2023-05-05T06:30:07.198Z,37.24
2023-05-05T06:32:34.280Z,38.20
2023-05-05T06:35:01.319Z,36.67
2023-05-05T06:37:39.101Z,35.38
2023-05-05T06:40:06.976Z,34.68
2023-05-05T06:42:34.032Z,35.09
2023-05-05T06:45:00.924Z,33.68
2023-05-05T06:47:27.766Z,34.25
2023-05-05T06:49:54.746Z,33.74
2023-05-05T06:52:23.197Z,34.99
2023-05-05T06:54:50.807Z,35.91
2023-05-05T06:57:17.706Z,35.34
2023-05-05T06:59:44.821Z,34.12
2023-05-05T07:02:11.684Z,33.57
2023-05-05T07:04:38.705Z,33.20
2023-05-05T07:07:05.591Z,33.20
2023-05-05T07:09:32.577Z,35.11
2023-05-05T07:11:59.459Z,33.79
2023-05-05T07:14:26.898Z,34.78
2023-05-05T07:16:54.009Z,33.94
2023-05-05T07:19:20.854Z,32.40
2023-05-05T07:21:55.216Z,30.00
2023-05-05T07:24:24.337Z,30.92
2023-05-05T07:26:51.349Z,31.97
2023-05-05T07:29:18.312Z,32.78
2023-05-05T07:31:45.587Z,30.18
2023-05-05T07:34:12.545Z,30.65
2023-05-05T07:36:39.504Z,30.14
2023-05-05T07:39:06.343Z,29.49
2023-05-05T07:41:34.282Z,29.14
2023-05-05T07:44:01.308Z,29.71
2023-05-05T07:46:28.286Z,28.48
2023-05-05T07:48:55.252Z,28.49
2023-05-05T07:51:22.127Z,28.64
2023-05-05T07:53:49.015Z,27.67
2023-05-05T07:56:16.168Z,27.53
2023-05-05T07:58:43.305Z,29.34
2023-05-05T08:01:10.237Z,27.31
2023-05-05T08:03:37.721Z,26.65
2023-05-05T08:06:09.499Z,27.55
2023-05-05T08:08:37.044Z,26.50
2023-05-05T08:11:03.985Z,26.61
2023-05-05T08:13:31.068Z,28.02
2023-05-05T08:15:58.379Z,26.54
2023-05-05T08:18:25.425Z,27.35
2023-05-05T08:20:52.674Z,25.78
2023-05-05T08:23:19.959Z,25.50
2023-05-05T08:25:46.887Z,25.02
2023-05-05T08:28:13.833Z,25.38
2023-05-05T08:30:40.772Z,25.19
2023-05-05T08:33:07.672Z,25.09
2023-05-05T08:35:34.985Z,24.50
2023-05-05T08:38:01.914Z,24.82
2023-05-05T08:40:37.275Z,24.96
2023-05-05T08:43:05.221Z,24.18
2023-05-05T08:45:33.329Z,23.64
2023-05-05T08:48:05.526Z,22.48
2023-05-05T08:53:57.511Z,22.97
2023-05-05T08:56:27.348Z,23.31
2023-05-05T08:58:55.091Z,23.83
2023-05-05T09:01:23.173Z,23.50
2023-05-05T09:03:52.568Z,22.95
2023-05-05T09:06:23.952Z,22.79
2023-05-05T09:08:59.655Z,23.46
2023-05-05T09:11:26.814Z,22.64
2023-05-05T09:13:54.875Z,24.79
2023-05-05T09:16:21.942Z,24.01
2023-05-05T09:18:50.003Z,22.63
2023-05-05T09:21:26.667Z,24.65
2023-05-05T09:24:11.510Z,23.61
2023-05-05T09:26:44.781Z,24.84
2023-05-05T09:29:21.470Z,24.55
2023-05-05T09:32:06.729Z,24.91
2023-05-05T09:34:35.057Z,24.00
2023-05-05T09:37:20.054Z,23.71
2023-05-05T09:39:54.471Z,23.75
2023-05-05T09:42:21.431Z,23.21
2023-05-05T09:44:48.274Z,23.81
2023-05-05T09:47:26.356Z,24.86
2023-05-05T09:49:59.594Z,24.37
2023-05-05T09:52:26.643Z,23.97
2023-05-05T09:54:57.342Z,24.31
2023-05-05T09:57:33.089Z,22.55
2023-05-05T10:00:01.804Z,23.18
2023-05-05T10:02:33.483Z,23.49
2023-05-05T10:05:09.318Z,23.26
2023-05-05T10:07:37.516Z,23.76
2023-05-05T10:10:06.141Z,23.33
2023-05-05T10:12:50.149Z,23.11
2023-05-05T10:15:17.363Z,23.18
2023-05-05T10:18:05.367Z,24.57
2023-05-05T10:20:33.656Z,24.24
2023-05-05T10:23:07.381Z,23.63
2023-05-05T10:25:51.421Z,23.55
2023-05-05T10:28:29.026Z,24.19
2023-05-05T10:30:58.635Z,23.92
2023-05-05T10:33:43.283Z,23.34
2023-05-05T10:36:10.554Z,22.48
2023-05-05T10:38:38.437Z,22.32
2023-05-05T10:41:06.038Z,22.88
2023-05-05T10:43:35.994Z,23.16
2023-05-05T10:46:04.418Z,25.05
2023-05-05T10:48:40.065Z,24.49
2023-05-05T10:51:27.413Z,24.11
2023-05-05T10:54:10.737Z,24.00
2023-05-05T10:56:41.231Z,23.35
2023-05-05T10:59:37.243Z,24.49
2023-05-05T11:02:31.038Z,23.06
2023-05-05T11:05:12.051Z,23.40
2023-05-05T11:07:40.364Z,22.48
2023-05-05T11:10:10.186Z,24.79
2023-05-05T11:12:55.384Z,23.79
2023-05-05T11:15:29.376Z,23.54
2023-05-05T11:18:02.643Z,23.18
2023-05-05T11:20:37.852Z,23.04
2023-05-05T11:23:05.333Z,23.05
2023-05-05T11:25:35.324Z,23.97
2023-05-05T11:28:16.475Z,25.37
2023-05-05T11:30:58.555Z,23.65
2023-05-05T11:33:33.883Z,23.38
2023-05-05T11:36:06.841Z,25.39
2023-05-05T11:38:56.182Z,24.48
2023-05-05T11:41:31.670Z,24.13
2023-05-05T11:44:18.261Z,24.44
2023-05-05T11:46:50.856Z,23.82
2023-05-05T11:49:36.764Z,24.41
2023-05-05T11:52:07.632Z,24.31
2023-05-05T11:54:48.164Z,24.04
2023-05-05T11:57:19.825Z,24.87
2023-05-05T11:59:54.927Z,24.29
2023-05-05T12:02:23.418Z,26.21
2023-05-05T12:04:50.967Z,23.47
2023-05-05T12:07:20.051Z,23.80
2023-05-05T12:09:48.319Z,25.65
2023-05-05T12:12:16.189Z,24.07
2023-05-05T12:14:51.276Z,23.50
2023-05-05T12:17:22.770Z,24.99
2023-05-05T12:19:51.876Z,23.84
2023-05-05T12:22:21.987Z,25.10
2023-05-05T12:25:00.339Z,25.52
2023-05-05T12:27:28.404Z,25.91
2023-05-05T12:29:57.540Z,24.81
2023-05-05T12:32:26.497Z,23.58
2023-05-05T12:34:55.142Z,23.83
2023-05-05T12:37:23.164Z,23.35
2023-05-05T12:39:57.790Z,23.69
2023-05-05T12:42:24.821Z,24.97
2023-05-05T12:44:51.699Z,24.05
2023-05-05T12:47:32.824Z,23.06
2023-05-05T12:50:00.393Z,23.97
2023-05-05T12:52:44.758Z,23.00
2023-05-05T12:55:13.562Z,22.50
2023-05-05T12:57:59.407Z,23.96
2023-05-05T13:00:26.930Z,22.45
2023-05-05T13:02:54.006Z,23.41
2023-05-05T13:05:34.947Z,24.66
2023-05-05T13:08:01.942Z,25.03
2023-05-05T13:10:28.976Z,25.09
2023-05-05T13:12:56.494Z,24.53
2023-05-05T13:15:24.939Z,25.25
2023-05-05T13:17:59.067Z,25.19
2023-05-05T13:20:26.208Z,25.48
2023-05-05T13:22:53.032Z,26.28
2023-05-05T13:25:19.965Z,25.47
2023-05-05T13:27:46.848Z,25.59
2023-05-05T13:30:14.272Z,26.02
2023-05-05T13:32:42.482Z,26.14
2023-05-05T13:35:09.639Z,26.11
2023-05-05T13:37:36.783Z,26.72
2023-05-05T13:40:04.007Z,25.35
2023-05-05T13:42:30.802Z,25.03
2023-05-05T13:44:57.640Z,24.62
2023-05-05T13:47:24.684Z,23.88
2023-05-05T13:49:51.686Z,23.76
2023-05-05T13:52:18.625Z,23.10
2023-05-05T13:54:45.672Z,23.56
2023-05-05T13:57:12.694Z,23.62
2023-05-05T13:59:39.536Z,23.77
2023-05-05T14:02:07.193Z,24.66
2023-05-05T14:04:34.284Z,24.53
2023-05-05T14:07:01.400Z,25.44
2023-05-05T14:09:32.513Z,25.04
2023-05-05T14:11:59.372Z,24.48
2023-05-05T14:14:26.398Z,25.70
2023-05-05T14:16:53.430Z,26.18
2023-05-05T14:19:20.691Z,26.71
2023-05-05T14:21:47.473Z,27.38
2023-05-05T14:24:15.165Z,27.22
2023-05-05T14:26:41.998Z,27.26
2023-05-05T14:29:09.083Z,26.90
2023-05-05T14:31:36.457Z,27.71
2023-05-05T14:34:03.432Z,28.06
2023-05-05T14:36:30.474Z,28.44
2023-05-05T14:38:57.498Z,28.38
2023-05-05T14:41:24.443Z,28.66
2023-05-05T14:43:51.430Z,28.76
2023-05-05T14:46:18.588Z,28.76
2023-05-05T14:48:45.832Z,29.13
2023-05-05T14:51:14.775Z,29.24
2023-05-05T14:53:41.994Z,29.24
2023-05-05T14:56:09.066Z,29.72
2023-05-05T14:58:36.121Z,29.50
2023-05-05T15:01:03.083Z,29.11
2023-05-05T15:03:30.022Z,29.77
2023-05-05T15:05:57.074Z,29.63
2023-05-05T15:08:24.127Z,29.94
2023-05-05T15:10:51.069Z,29.77
2023-05-05T15:13:18.022Z,29.77
2023-05-05T15:15:44.990Z,29.67
2023-05-05T15:18:12.153Z,29.67
2023-05-05T15:20:39.069Z,29.32
2023-05-05T15:23:06.164Z,30.00
2023-05-05T15:25:33.164Z,30.27
2023-05-05T15:28:00.239Z,30.66
2023-05-05T15:30:28.004Z,30.02
2023-05-05T15:32:55.110Z,30.93
2023-05-05T15:35:22.213Z,31.07
2023-05-05T15:37:55.100Z,30.98
2023-05-05T15:40:22.324Z,31.03
2023-05-05T15:42:49.360Z,31.24
2023-05-05T15:45:16.985Z,30.63
2023-05-05T15:47:44.050Z,30.65
2023-05-05T15:50:11.452Z,30.54
2023-05-05T15:52:38.561Z,30.80
2023-05-05T15:55:06.282Z,31.15
2023-05-05T15:57:34.568Z,31.65
2023-05-05T16:00:01.738Z,31.57
2023-05-05T16:02:28.959Z,31.36
2023-05-05T16:04:56.080Z,31.36
2023-05-05T16:07:23.138Z,31.75
2023-05-05T16:09:50.200Z,30.69
2023-05-05T16:12:20.628Z,31.68
2023-05-05T16:14:47.852Z,32.27
2023-05-05T16:17:14.910Z,32.96
2023-05-05T16:19:41.961Z,32.17
2023-05-05T16:22:09.433Z,32.28
2023-05-05T16:24:36.607Z,31.28
2023-05-05T16:27:04.184Z,30.13
2023-05-05T16:29:31.179Z,29.62
2023-05-05T16:31:58.335Z,29.36
2023-05-05T16:34:25.874Z,29.39
2023-05-05T16:36:55.928Z,29.42
2023-05-05T16:39:29.900Z,29.66
2023-05-05T16:41:57.345Z,29.38
2023-05-05T16:44:34.653Z,29.40
2023-05-05T16:47:05.448Z,29.68
2023-05-05T16:49:32.832Z,29.27
2023-05-05T16:51:59.970Z,29.19
2023-05-05T16:54:27.369Z,29.71
2023-05-05T16:56:54.440Z,29.41
2023-05-05T16:59:21.362Z,29.62
2023-05-05T17:01:48.514Z,29.93
2023-05-05T17:04:15.653Z,29.93
2023-05-05T17:06:42.726Z,29.66
2023-05-05T17:09:09.856Z,29.11
2023-05-05T17:11:36.906Z,29.20
2023-05-05T17:14:03.969Z,29.75
2023-05-05T17:16:32.098Z,30.29
2023-05-05T17:18:59.168Z,30.09
2023-05-05T17:21:26.054Z,30.64
2023-05-05T17:23:54.720Z,31.09
2023-05-05T17:26:22.881Z,33.13
2023-05-05T17:28:50.041Z,35.45
2023-05-05T17:31:17.131Z,34.31
2023-05-05T17:33:44.127Z,34.83
2023-05-05T17:36:11.264Z,34.84
2023-05-05T17:38:38.506Z,34.66
2023-05-05T17:41:08.552Z,34.21
2023-05-05T17:43:37.040Z,33.92
2023-05-05T17:46:06.644Z,34.06
2023-05-05T17:48:33.935Z,34.27
2023-05-05T17:51:01.800Z,34.34
2023-05-05T17:53:31.574Z,33.90
2023-05-05T17:56:02.827Z,34.56
2023-05-05T17:58:29.808Z,34.02
2023-05-05T18:00:57.050Z,34.31
2023-05-05T18:03:29.434Z,33.71
2023-05-05T18:06:02.475Z,33.52
2023-05-05T18:08:29.938Z,33.58
2023-05-05T18:10:56.992Z,33.21
2023-05-05T18:13:24.128Z,33.91
2023-05-05T18:15:54.515Z,34.19
2023-05-05T18:18:22.053Z,34.32
2023-05-05T18:20:49.723Z,35.03
2023-05-05T18:23:16.855Z,35.40
2023-05-05T18:25:46.975Z,35.67
2023-05-05T18:28:14.061Z,35.92
2023-05-05T18:30:43.915Z,35.48
2023-05-05T18:33:13.399Z,35.19
2023-05-05T18:35:40.585Z,35.29
2023-05-05T18:38:07.590Z,35.42
2023-05-05T18:40:34.572Z,35.56
2023-05-05T18:43:01.645Z,35.17
2023-05-05T18:45:31.448Z,35.06
2023-05-05T18:47:58.641Z,35.13
2023-05-05T18:50:25.726Z,34.64
2023-05-05T18:52:52.905Z,34.98
2023-05-05T18:55:20.065Z,35.72
2023-05-05T18:57:47.132Z,35.42
2023-05-05T19:00:14.442Z,35.02
2023-05-05T19:02:41.572Z,34.93
2023-05-05T19:05:09.556Z,34.65
2023-05-05T19:07:36.906Z,34.22
2023-05-05T19:10:05.242Z,34.39
2023-05-05T19:12:32.266Z,34.29
2023-05-05T19:15:02.271Z,34.34
2023-05-05T19:17:29.378Z,34.02
2023-05-05T19:19:56.727Z,34.04
2023-05-05T19:22:24.860Z,34.09
2023-05-05T19:24:51.769Z,34.04
2023-05-05T19:27:18.855Z,34.18
2023-05-05T19:29:48.320Z,34.62
2023-05-05T19:32:18.460Z,34.91
2023-05-05T19:34:50.924Z,35.47
2023-05-05T19:37:18.031Z,35.36
2023-05-05T19:39:46.462Z,35.29
2023-05-05T19:42:17.687Z,35.84
2023-05-05T19:44:45.146Z,36.09
2023-05-05T19:47:13.707Z,36.41
2023-05-05T19:49:52.131Z,36.38
2023-05-05T19:52:19.203Z,36.36
2023-05-05T19:54:49.936Z,36.54
2023-05-05T19:57:22.323Z,36.87
2023-05-05T19:59:49.357Z,36.81
2023-05-05T20:02:16.844Z,37.25
2023-05-05T20:04:44.284Z,37.13
2023-05-05T20:07:12.718Z,36.97
2023-05-05T20:09:40.084Z,36.91
2023-05-05T20:12:10.458Z,37.13
2023-05-05T20:14:39.612Z,37.40
2023-05-05T20:17:06.642Z,37.31
2023-05-05T20:19:36.631Z,37.48
2023-05-05T20:22:03.653Z,37.57
2023-05-05T20:24:30.976Z,37.15
2023-05-05T20:26:58.012Z,37.74
2023-05-05T20:29:25.063Z,37.36
2023-05-05T20:31:52.009Z,37.41
2023-05-05T20:34:19.187Z,37.48
2023-05-05T20:36:46.108Z,37.61
2023-05-05T20:39:16.270Z,37.69
2023-05-05T20:41:43.342Z,37.98
2023-05-05T20:44:10.320Z,38.02
2023-05-05T20:46:37.367Z,38.36
2023-05-05T20:49:04.542Z,38.31
2023-05-05T20:51:32.883Z,38.59
2023-05-05T20:54:00.411Z,38.55
2023-05-05T20:56:30.440Z,38.48
2023-05-05T20:58:57.473Z,38.90
2023-05-05T21:01:27.513Z,39.23
2023-05-05T21:03:59.632Z,39.78
2023-05-05T21:06:26.827Z,40.04
2023-05-05T21:08:53.908Z,40.25
2023-05-05T21:11:21.079Z,40.20
2023-05-05T21:13:48.058Z,40.51
2023-05-05T21:16:16.874Z,41.18
2023-05-05T21:18:44.168Z,41.22
2023-05-05T21:21:11.265Z,41.66
2023-05-05T21:23:38.332Z,41.43
2023-05-05T21:26:05.522Z,41.10
2023-05-05T21:28:32.510Z,40.78
2023-05-05T21:31:19.870Z,39.83
2023-05-05T21:33:46.537Z,39.88
2023-05-05T21:36:13.801Z,40.74
2023-05-05T21:38:41.097Z,40.82
2023-05-05T21:41:08.076Z,40.90
2023-05-05T21:43:34.990Z,40.67
2023-05-05T21:46:04.739Z,39.98
2023-05-05T21:48:31.865Z,40.17
2023-05-05T21:50:58.908Z,40.17
2023-05-05T21:53:25.873Z,39.70
2023-05-05T21:55:52.967Z,39.50
2023-05-05T21:58:19.872Z,39.20
2023-05-05T22:00:49.610Z,39.14
2023-05-05T22:03:17.045Z,39.20
2023-05-05T22:05:44.079Z,38.71
2023-05-05T22:08:10.947Z,39.02
2023-05-05T22:10:40.511Z,39.38
2023-05-05T22:13:07.590Z,39.26
2023-05-05T22:15:45.388Z,39.45
2023-05-05T22:18:14.165Z,39.14
2023-05-05T22:20:41.289Z,39.56
2023-05-05T22:23:08.199Z,39.32
2023-05-05T22:25:35.820Z,39.20
2023-05-05T22:28:02.902Z,39.43
2023-05-05T22:30:29.864Z,39.33
2023-05-05T22:33:00.219Z,38.63
2023-05-05T22:35:27.407Z,38.68
2023-05-05T22:37:54.565Z,39.17
2023-05-05T22:40:21.710Z,38.79
2023-05-05T22:42:49.237Z,40.51
2023-05-05T22:45:16.448Z,39.58
2023-05-05T22:47:43.560Z,39.16
2023-05-05T22:50:10.960Z,38.33
2023-05-05T22:52:37.881Z,38.94
2023-05-05T22:55:05.236Z,38.02
2023-05-05T22:57:34.496Z,38.38
2023-05-05T23:00:02.966Z,38.05
2023-05-05T23:02:30.051Z,38.19
2023-05-05T23:04:57.061Z,38.10
2023-05-05T23:07:24.095Z,38.71
2023-05-05T23:09:51.060Z,39.16
2023-05-05T23:12:18.128Z,38.94
2023-05-05T23:14:45.064Z,39.57
2023-05-05T23:17:12.141Z,39.73
2023-05-05T23:19:39.216Z,40.00
2023-05-05T23:22:06.140Z,40.64
2023-05-05T23:24:33.324Z,40.61
2023-05-05T23:27:01.204Z,41.09
2023-05-05T23:29:28.387Z,40.75
2023-05-05T23:31:55.592Z,41.03
2023-05-05T23:34:22.607Z,40.24
2023-05-05T23:36:49.831Z,39.53
2023-05-05T23:39:16.987Z,39.58
2023-05-05T23:41:44.111Z,39.38
2023-05-05T23:44:11.105Z,39.09
2023-05-05T23:46:38.335Z,39.18
2023-05-05T23:49:05.402Z,38.69
2023-05-05T23:51:34.511Z,38.12
2023-05-05T23:54:01.608Z,38.75
2023-05-05T23:56:28.599Z,38.78
2023-05-05T23:58:55.543Z,37.88
